Avalon — PBSF — position and weather

sailwx.info

Track history (hours):
 
Tides and Currents Weather Stations Pressure Air Temp Water Temp Dewpoint Dewpoint Depression Visibility Wind Speed Wind Dir Waves Ship Positions

Avalon

Last reported at 2016-Sep-24 02:12 UTC. Time now 2016-Sep-25 00:23 UTC.
Position N 54°39' E 020°05'.

Length 89 m; draft 3.5 m.

Type: Cargo ship. MMSI: 246578000.

Date/timePositionNaut miles runAvg speedWind from/ knotsBaromVisibWave heightAir tempDewpointWater temp
2016-Sep-24 02:12N 54°39' E 020°05'6 8.9
2016-Sep-24 01:33N 54°38' E 019°56'5 4.7
2016-Sep-24 00:31N 54°40' E 019°48'0 0.0
2016-Sep-23 19:31N 54°40' E 019°47'11 5.8
2016-Sep-23 17:33N 54°45' E 019°30'1111.3
2016-Sep-23 16:34N 54°49' E 019°12'1111.1
2016-Sep-23 15:33N 54°52' E 018°53'2211.1
2016-Sep-23 13:34N 54°55' E 018°15'14310.7
2016-Sep-23 00:16N 54°04' E 014°26'710.3
2016-Sep-22 23:34N 53°59' E 014°16'29 9.8
2016-Sep-22 20:34N 53°32' E 014°38'6 0.8
2016-Sep-22 12:31N 53°26' E 014°35'39 4.9
2016-Sep-22 04:33N 54°03' E 014°14'1010.1
2016-Sep-22 03:33N 54°13' E 014°11'49 9.0
2016-Sep-21 22:08N 54°41' E 013°03'25 9.7
2016-Sep-21 19:33N 54°33' E 012°22'26 8.7
2016-Sep-21 16:33N 54°26' E 011°39'55 7.9
2016-Sep-21 09:33N 54°22' E 010°05'8 7.5
2016-Sep-21 08:33N 54°22' E 009°52'38 7.6
2016-Sep-21 03:33N 53°54' E 009°09'4 4.2
2016-Sep-21 02:33N 53°52' E 009°02'87 9.7
2016-Sep-20 17:33N 53°46' E 006°34'25 8.3
2016-Sep-20 14:33N 53°39' E 005°54'9 8.9
2016-Sep-20 13:33N 53°36' E 005°40'47 9.4
2016-Sep-20 08:32N 53°11' E 004°34'1111.2
2016-Sep-20 07:33N 53°01' E 004°24'1111.2
2016-Sep-20 06:33N 52°51' E 004°15'7310.4
2016-Sep-19 23:29N 51°47' E 003°16'25 6.4
2016-Sep-19 19:33N 51°27' E 003°41'2 1.6
2016-Sep-19 18:32N 51°27' E 003°44'0 0.0
2016-Sep-19 16:29N 51°27' E 003°44'0 0.0
2016-Sep-19 14:32N 51°27' E 003°44'0 0.0
2016-Sep-19 13:32N 51°27' E 003°44'0 0.0
2016-Sep-19 12:32N 51°27' E 003°44'0 0.0
2016-Sep-19 11:32N 51°27' E 003°44'0 0.0
2016-Sep-19 09:32N 51°27' E 003°44'0 0.0
2016-Sep-19 07:29N 51°27' E 003°44'0 0.0
2016-Sep-19 06:32N 51°27' E 003°44'0 0.0
2016-Sep-19 03:32N 51°27' E 003°44'0 0.0
2016-Sep-19 02:32N 51°27' E 003°44'0 0.0
2016-Sep-19 00:32N 51°27' E 003°44'0 0.0
2016-Sep-18 19:32N 51°27' E 003°44'0 0.0
2016-Sep-18 15:32N 51°27' E 003°44'0 0.0
2016-Sep-18 14:32N 51°27' E 003°44'0 0.0
2016-Sep-18 10:32N 51°27' E 003°44'0 0.0
2016-Sep-18 09:29N 51°27' E 003°44'0 0.0
2016-Sep-18 02:32N 51°27' E 003°44'0 0.0
2016-Sep-18 01:32N 51°27' E 003°44'0 0.0
2016-Sep-18 00:32N 51°27' E 003°44'0 0.0
2016-Sep-17 22:32N 51°27' E 003°44'0 0.0
2016-Sep-17 21:32N 51°27' E 003°44'0 0.0
2016-Sep-17 20:29N 51°27' E 003°44'0 0.0
2016-Sep-17 19:14N 51°27' E 003°44'0 0.0
2016-Sep-17 13:32N 51°27' E 003°44'0 0.0
2016-Sep-17 12:32N 51°27' E 003°44'0 0.0
2016-Sep-17 10:32N 51°27' E 003°44'0 0.0
2016-Sep-17 09:29N 51°27' E 003°44'0 0.0
2016-Sep-17 08:32N 51°27' E 003°44'0 0.0
2016-Sep-17 07:32N 51°27' E 003°44'0 0.0
2016-Sep-17 05:32N 51°27' E 003°44'0 0.0
2016-Sep-17 04:32N 51°27' E 003°44'0 0.0
2016-Sep-17 00:29N 51°27' E 003°44'38 5.5
2016-Sep-16 17:34N 51°21' E 002°43'9 4.5
2016-Sep-16 15:34N 51°21' E 002°28'25 8.2
2016-Sep-16 12:34N 51°09' E 001°54'20011.1
2016-Sep-15 18:33N 49°51' W 002°55'8611.9
2016-Sep-15 11:22N 49°43' W 005°07'66 8.0
2016-Sep-15 03:05N 49°48' W 006°50'114 7.8
2016-Sep-14 12:29N 50°59' W 009°11'15 7.7
2016-Sep-14 10:34N 51°08' W 009°29'8 7.8
2016-Sep-14 09:33N 51°13' W 009°39'  
Track history (hours):
 
Tides and Currents Weather Stations Pressure Air Temp Water Temp Dewpoint Dewpoint Depression Visibility Wind Speed Wind Dir Waves Ship Positions

Avalon

Last reported at 2016-Sep-24 02:12 UTC. Time now 2016-Sep-25 00:23 UTC.
Position N 54°39' E 020°05'.

Length 89 m; draft 3.5 m.

Type: Cargo ship. MMSI: 246578000.

Date/timePositionNaut miles runAvg speedWind from/ knotsBaromVisibWave heightAir tempDewpointWater temp
2016-Sep-24 02:12N 54°39' E 020°05'6 8.9
2016-Sep-24 01:33N 54°38' E 019°56'5 4.7
2016-Sep-24 00:31N 54°40' E 019°48'0 0.0
2016-Sep-23 19:31N 54°40' E 019°47'11 5.8
2016-Sep-23 17:33N 54°45' E 019°30'1111.3
2016-Sep-23 16:34N 54°49' E 019°12'1111.1
2016-Sep-23 15:33N 54°52' E 018°53'2211.1
2016-Sep-23 13:34N 54°55' E 018°15'14310.7
2016-Sep-23 00:16N 54°04' E 014°26'710.3
2016-Sep-22 23:34N 53°59' E 014°16'29 9.8
2016-Sep-22 20:34N 53°32' E 014°38'6 0.8
2016-Sep-22 12:31N 53°26' E 014°35'39 4.9
2016-Sep-22 04:33N 54°03' E 014°14'1010.1
2016-Sep-22 03:33N 54°13' E 014°11'49 9.0
2016-Sep-21 22:08N 54°41' E 013°03'25 9.7
2016-Sep-21 19:33N 54°33' E 012°22'26 8.7
2016-Sep-21 16:33N 54°26' E 011°39'55 7.9
2016-Sep-21 09:33N 54°22' E 010°05'8 7.5
2016-Sep-21 08:33N 54°22' E 009°52'38 7.6
2016-Sep-21 03:33N 53°54' E 009°09'4 4.2
2016-Sep-21 02:33N 53°52' E 009°02'87 9.7
2016-Sep-20 17:33N 53°46' E 006°34'25 8.3
2016-Sep-20 14:33N 53°39' E 005°54'9 8.9
2016-Sep-20 13:33N 53°36' E 005°40'47 9.4
2016-Sep-20 08:32N 53°11' E 004°34'1111.2
2016-Sep-20 07:33N 53°01' E 004°24'1111.2
2016-Sep-20 06:33N 52°51' E 004°15'7310.4
2016-Sep-19 23:29N 51°47' E 003°16'25 6.4
2016-Sep-19 19:33N 51°27' E 003°41'2 1.6
2016-Sep-19 18:32N 51°27' E 003°44'0 0.0
2016-Sep-19 16:29N 51°27' E 003°44'0 0.0
2016-Sep-19 14:32N 51°27' E 003°44'0 0.0
2016-Sep-19 13:32N 51°27' E 003°44'0 0.0
2016-Sep-19 12:32N 51°27' E 003°44'0 0.0
2016-Sep-19 11:32N 51°27' E 003°44'0 0.0
2016-Sep-19 09:32N 51°27' E 003°44'0 0.0
2016-Sep-19 07:29N 51°27' E 003°44'0 0.0
2016-Sep-19 06:32N 51°27' E 003°44'0 0.0
2016-Sep-19 03:32N 51°27' E 003°44'0 0.0
2016-Sep-19 02:32N 51°27' E 003°44'0 0.0
2016-Sep-19 00:32N 51°27' E 003°44'0 0.0
2016-Sep-18 19:32N 51°27' E 003°44'0 0.0
2016-Sep-18 15:32N 51°27' E 003°44'0 0.0
2016-Sep-18 14:32N 51°27' E 003°44'0 0.0
2016-Sep-18 10:32N 51°27' E 003°44'0 0.0
2016-Sep-18 09:29N 51°27' E 003°44'0 0.0
2016-Sep-18 02:32N 51°27' E 003°44'0 0.0
2016-Sep-18 01:32N 51°27' E 003°44'0 0.0
2016-Sep-18 00:32N 51°27' E 003°44'0 0.0
2016-Sep-17 22:32N 51°27' E 003°44'0 0.0
2016-Sep-17 21:32N 51°27' E 003°44'0 0.0
2016-Sep-17 20:29N 51°27' E 003°44'0 0.0
2016-Sep-17 19:14N 51°27' E 003°44'0 0.0
2016-Sep-17 13:32N 51°27' E 003°44'0 0.0
2016-Sep-17 12:32N 51°27' E 003°44'0 0.0
2016-Sep-17 10:32N 51°27' E 003°44'0 0.0
2016-Sep-17 09:29N 51°27' E 003°44'0 0.0
2016-Sep-17 08:32N 51°27' E 003°44'0 0.0
2016-Sep-17 07:32N 51°27' E 003°44'0 0.0
2016-Sep-17 05:32N 51°27' E 003°44'0 0.0
2016-Sep-17 04:32N 51°27' E 003°44'0 0.0
2016-Sep-17 00:29N 51°27' E 003°44'38 5.5
2016-Sep-16 17:34N 51°21' E 002°43'9 4.5
2016-Sep-16 15:34N 51°21' E 002°28'25 8.2
2016-Sep-16 12:34N 51°09' E 001°54'20011.1
2016-Sep-15 18:33N 49°51' W 002°55'8611.9
2016-Sep-15 11:22N 49°43' W 005°07'66 8.0
2016-Sep-15 03:05N 49°48' W 006°50'114 7.8
2016-Sep-14 12:29N 50°59' W 009°11'15 7.7
2016-Sep-14 10:34N 51°08' W 009°29'8 7.8
2016-Sep-14 09:33N 51°13' W 009°39'  

Dump ship's entire track history